Time;durP1;ratioP1;P1;durP2;ratioP2;P2;SDS_P1;SDS_P2;PMS_P1;PMS_P2;Temp;Humidity;BMP_temperature;BMP_pressure;BME280_temperature;BME280_humidity;BME280_pressure;Samples;Min_cycle;Max_cycle;Signal;HPM_P1;HPM_P2
2020/12/29 00:01:32;;;;;;;36.10;20.90;;;;;;;-1.44;100.00;97359.09;5029940;28;20073;-53
2020/12/29 00:03:58;;;;;;;41.53;22.75;;;;;;;-1.34;100.00;97361.50;5023428;28;20739;-51
2020/12/29 00:06:25;;;;;;;45.05;23.08;;;;;;;-1.41;100.00;97363.19;5026359;28;20543;-55
2020/12/29 00:08:52;;;;;;;44.47;23.52;;;;;;;-1.53;100.00;97361.91;5029753;28;20125;-53
2020/12/29 00:11:20;;;;;;;31.23;18.52;;;;;;;-1.45;100.00;97359.28;5024165;28;20325;-53
2020/12/29 00:13:48;;;;;;;37.75;19.50;;;;;;;-1.26;100.00;97371.09;5028180;28;20041;-52
2020/12/29 00:16:14;;;;;;;40.72;19.67;;;;;;;-1.10;100.00;97368.41;5031106;28;20041;-57
2020/12/29 00:18:42;;;;;;;31.83;17.10;;;;;;;-0.73;100.00;97366.84;5034874;28;20060;-53
2020/12/29 00:21:17;;;;;;;32.63;16.98;;;;;;;-0.77;100.00;97372.63;5032928;28;20433;-54
2020/12/29 00:23:43;;;;;;;31.60;16.60;;;;;;;-0.89;100.00;97382.69;5031754;28;20037;-54
2020/12/29 00:26:12;;;;;;;42.00;23.02;;;;;;;-1.24;100.00;97377.00;5029676;28;20134;-54
2020/12/29 00:28:40;;;;;;;38.83;20.50;;;;;;;-1.12;100.00;97388.72;5028698;28;20318;-52
2020/12/29 00:31:08;;;;;;;27.45;15.05;;;;;;;-1.31;100.00;97379.47;5032034;28;20049;-54
2020/12/29 00:33:35;;;;;;;35.22;15.98;;;;;;;-1.11;100.00;97385.09;5029941;28;20077;-52
2020/12/29 00:36:03;;;;;;;34.55;17.90;;;;;;;-1.14;100.00;97385.44;5031667;28;20046;-55
2020/12/29 00:38:30;;;;;;;26.75;15.65;;;;;;;-1.07;100.00;97391.63;5034179;28;20045;-52
2020/12/29 00:40:57;;;;;;;27.52;15.57;;;;;;;-1.07;100.00;97394.25;5032716;28;20049;-53
2020/12/29 00:43:24;;;;;;;23.88;15.18;;;;;;;-0.80;100.00;97402.59;5032013;28;20113;-54
2020/12/29 00:45:50;;;;;;;29.25;14.05;;;;;;;-0.50;100.00;97391.41;5033762;28;20049;-59
2020/12/29 00:48:18;;;;;;;22.40;13.55;;;;;;;-0.26;100.00;97399.06;5035085;28;20421;-56
2020/12/29 00:50:45;;;;;;;24.92;14.30;;;;;;;-0.25;100.00;97394.66;5033760;28;20392;-57
2020/12/29 00:53:12;;;;;;;30.23;15.48;;;;;;;-0.43;100.00;97398.38;5029433;28;20045;-56
2020/12/29 00:55:39;;;;;;;22.15;13.70;;;;;;;-0.45;100.00;97400.38;5028486;28;20037;-57
2020/12/29 00:58:06;;;;;;;37.75;20.80;;;;;;;-0.47;100.00;97412.03;5030927;28;20069;-57
2020/12/29 01:00:33;;;;;;;48.33;24.27;;;;;;;-1.10;100.00;97418.16;5032858;28;20044;-55
2020/12/29 01:03:00;;;;;;;36.03;19.92;;;;;;;-1.08;100.00;97429.31;5031777;28;20046;-57
2020/12/29 01:05:28;;;;;;;35.33;20.83;;;;;;;-1.06;100.00;97429.94;5030347;28;20037;-55
2020/12/29 01:07:56;;;;;;;34.75;20.10;;;;;;;-1.07;100.00;97417.81;5034378;28;20056;-54
2020/12/29 01:10:25;;;;;;;34.17;18.58;;;;;;;-0.99;100.00;97413.53;5030112;28;20041;-55
2020/12/29 01:12:52;;;;;;;32.63;16.83;;;;;;;-0.76;100.00;97422.22;5023715;28;20046;-55
2020/12/29 01:15:19;;;;;;;36.17;21.67;;;;;;;-0.55;100.00;97436.53;5031208;28;20045;-57
2020/12/29 01:17:46;;;;;;;41.35;21.77;;;;;;;-0.61;100.00;97438.03;5031139;28;20048;-47
2020/12/29 01:20:14;;;;;;;41.80;22.73;;;;;;;-0.89;100.00;97435.91;5031766;28;20099;-54
2020/12/29 01:22:42;;;;;;;39.28;21.58;;;;;;;-0.83;100.00;97442.25;5024646;28;20061;-51
2020/12/29 01:25:09;;;;;;;34.63;17.85;;;;;;;-0.81;100.00;97442.88;5030603;28;20045;-55
2020/12/29 01:27:36;;;;;;;30.80;17.67;;;;;;;-0.71;100.00;97448.75;5027322;28;20309;-55
2020/12/29 01:30:04;;;;;;;38.58;18.27;;;;;;;-0.54;100.00;97453.84;5031516;28;20053;-57
2020/12/29 01:32:31;;;;;;;29.65;18.10;;;;;;;-0.33;100.00;97447.16;5027100;28;20212;-57
2020/12/29 01:34:58;;;;;;;26.80;15.65;;;;;;;-0.32;100.00;97454.03;5031539;28;20349;-57
2020/12/29 01:37:24;;;;;;;30.70;16.10;;;;;;;-0.13;100.00;97455.34;5032514;28;20353;-57
2020/12/29 01:39:54;;;;;;;24.77;15.48;;;;;;;-0.13;100.00;97456.16;5033982;28;20345;-57
2020/12/29 01:42:20;;;;;;;31.75;17.58;;;;;;;-0.32;100.00;97462.72;5028771;28;20311;-55
2020/12/29 01:44:48;;;;;;;29.25;17.38;;;;;;;-0.26;100.00;97471.69;5028783;28;20056;-57
2020/12/29 01:47:15;;;;;;;31.73;17.83;;;;;;;0.06;100.00;97469.78;5033179;28;20485;-56
2020/12/29 01:49:55;;;;;;;30.60;16.83;;;;;;;0.14;100.00;97472.34;5030390;28;20425;-56
2020/12/29 01:52:21;;;;;;;31.08;18.10;;;;;;;0.25;100.00;97476.34;5031209;28;20325;-57
2020/12/29 01:54:48;;;;;;;30.42;15.32;;;;;;;0.41;100.00;97483.22;5030813;28;20049;-57
2020/12/29 01:57:16;;;;;;;29.80;16.80;;;;;;;0.36;100.00;97485.59;5031318;28;20037;-56
2020/12/29 01:59:44;;;;;;;22.83;12.63;;;;;;;0.32;100.00;97490.38;5028548;28;20063;-56
2020/12/29 02:02:11;;;;;;;25.77;14.50;;;;;;;0.38;100.00;97489.66;5032089;28;20168;-57
2020/12/29 02:04:39;;;;;;;27.10;14.15;;;;;;;0.44;100.00;97499.47;5030178;28;20132;-57
2020/12/29 02:07:06;;;;;;;24.55;13.55;;;;;;;0.50;100.00;97500.56;5027743;28;20042;-56
2020/12/29 02:09:32;;;;;;;20.63;13.60;;;;;;;0.56;100.00;97507.69;5033014;28;20041;-57
2020/12/29 02:12:21;;;;;;;23.52;14.68;;;;;;;0.56;100.00;97505.06;5033162;28;20441;-56
2020/12/29 02:14:48;;;;;;;25.88;13.18;;;;;;;0.60;100.00;97508.97;5027444;28;20052;-57
2020/12/29 02:17:15;;;;;;;20.85;12.63;;;;;;;0.68;100.00;97522.03;5031092;28;20097;-57
2020/12/29 02:19:42;;;;;;;25.35;12.52;;;;;;;0.50;100.00;97524.19;5033096;28;20048;-56
2020/12/29 02:22:09;;;;;;;21.13;11.55;;;;;;;0.41;100.00;97520.00;5028160;28;20047;-57
2020/12/29 02:24:37;;;;;;;19.30;9.98;;;;;;;0.47;100.00;97535.84;5026697;28;20045;-57
2020/12/29 02:27:04;;;;;;;15.27;8.98;;;;;;;0.55;100.00;97542.81;5031128;28;20472;-57
2020/12/29 02:29:34;;;;;;;12.75;7.15;;;;;;;0.79;100.00;97544.38;5027649;28;20041;-58
2020/12/29 02:32:04;;;;;;;15.43;7.57;;;;;;;0.68;100.00;97543.03;5032375;28;20068;-57
2020/12/29 02:34:31;;;;;;;13.15;7.57;;;;;;;0.71;100.00;97541.03;5026832;28;20128;-56
2020/12/29 02:36:58;;;;;;;14.85;7.35;;;;;;;0.78;100.00;97531.44;5030832;28;20038;-56
2020/12/29 02:39:25;;;;;;;12.75;6.40;;;;;;;0.69;100.00;97541.22;5030756;28;20071;-52
2020/12/29 02:41:53;;;;;;;10.52;6.20;;;;;;;0.85;100.00;97546.31;5028799;28;20046;-54
2020/12/29 02:44:20;;;;;;;14.95;8.98;;;;;;;0.61;100.00;97552.63;5026112;28;20159;-54
2020/12/29 02:46:48;;;;;;;18.30;11.02;;;;;;;0.26;100.00;97557.53;5029034;28;20053;-55
2020/12/29 02:49:15;;;;;;;19.95;9.13;;;;;;;0.26;100.00;97554.91;5030068;28;20045;-55
2020/12/29 02:51:44;;;;;;;14.43;6.82;;;;;;;0.30;100.00;97550.94;5031278;28;20068;-53
2020/12/29 02:54:11;;;;;;;21.30;8.48;;;;;;;0.40;100.00;97562.97;5026754;28;20046;-54
2020/12/29 02:56:38;;;;;;;17.02;8.73;;;;;;;0.24;100.00;97564.78;5028563;28;20041;-54
2020/12/29 02:59:06;;;;;;;17.52;8.98;;;;;;;0.24;100.00;97577.06;5024589;28;20476;-52
2020/12/29 03:01:33;;;;;;;17.88;9.90;;;;;;;0.11;100.00;97572.41;5031159;28;20034;-53
2020/12/29 03:04:00;;;;;;;16.65;8.02;;;;;;;0.30;100.00;97577.19;5029183;28;20034;-55
2020/12/29 03:06:27;;;;;;;16.00;9.20;;;;;;;0.36;100.00;97580.09;5029731;28;20048;-55
2020/12/29 03:08:54;;;;;;;14.65;7.85;;;;;;;0.39;100.00;97582.38;5025300;28;20066;-54
2020/12/29 03:11:27;;;;;;;14.35;7.38;;;;;;;0.41;100.00;97590.88;5028462;28;20049;-52
2020/12/29 03:13:55;;;;;;;14.60;7.40;;;;;;;0.61;100.00;97584.16;5026685;28;20290;-54
2020/12/29 03:16:23;;;;;;;13.05;7.15;;;;;;;0.65;100.00;97592.47;5030047;28;20364;-52
2020/12/29 03:18:50;;;;;;;13.60;7.53;;;;;;;0.82;100.00;97595.75;5030839;28;20341;-53
2020/12/29 03:21:17;;;;;;;11.85;6.88;;;;;;;0.78;100.00;97590.06;5027558;28;20425;-53
2020/12/29 03:23:44;;;;;;;16.65;7.07;;;;;;;0.83;100.00;97597.41;5024505;28;20092;-53
2020/12/29 03:26:11;;;;;;;19.38;8.07;;;;;;;0.91;100.00;97599.94;5029961;28;20052;-54
2020/12/29 03:28:38;;;;;;;13.70;7.32;;;;;;;0.87;100.00;97598.66;5028337;28;20049;-53
2020/12/29 03:31:06;;;;;;;12.48;7.15;;;;;;;1.00;100.00;97605.94;5027789;28;20046;-54
2020/12/29 03:33:34;;;;;;;16.50;7.68;;;;;;;1.13;100.00;97608.72;5027770;28;20045;-54
2020/12/29 03:36:01;;;;;;;14.35;7.18;;;;;;;1.24;100.00;97615.34;5025227;28;20044;-54
2020/12/29 03:38:28;;;;;;;12.65;7.43;;;;;;;1.27;100.00;97620.25;5030946;28;20314;-51
2020/12/29 03:40:55;;;;;;;15.52;8.43;;;;;;;1.26;100.00;97613.38;5026097;28;20071;-53
2020/12/29 03:43:22;;;;;;;16.70;8.05;;;;;;;1.29;100.00;97618.28;5002988;28;20063;-54
2020/12/29 03:45:50;;;;;;;12.75;7.53;;;;;;;1.38;100.00;97617.16;5024854;28;20045;-55
2020/12/29 03:48:19;;;;;;;14.90;7.93;;;;;;;1.32;100.00;97611.84;5028964;28;20050;-54
2020/12/29 03:50:47;;;;;;;16.13;8.93;;;;;;;1.38;100.00;97626.88;5027908;28;20041;-54
2020/12/29 03:53:14;;;;;;;16.15;9.35;;;;;;;1.32;100.00;97624.97;5025207;28;20424;-54
2020/12/29 03:55:41;;;;;;;21.70;9.15;;;;;;;1.39;100.00;97628.50;5029555;28;20045;-55
2020/12/29 03:58:08;;;;;;;20.92;10.98;;;;;;;1.38;100.00;97630.31;5029563;28;20046;-54
2020/12/29 04:00:36;;;;;;;25.83;12.45;;;;;;;1.44;100.00;97630.59;5028736;28;20050;-52
2020/12/29 04:03:03;;;;;;;26.67;13.35;;;;;;;1.46;100.00;97631.22;5033045;28;20046;-51
2020/12/29 04:05:31;;;;;;;25.67;14.10;;;;;;;1.44;100.00;97633.22;5029522;28;20048;-52
2020/12/29 04:08:02;;;;;;;25.63;13.55;;;;;;;1.42;100.00;97632.56;5028527;28;20041;-49
2020/12/29 04:10:28;;;;;;;28.77;15.07;;;;;;;1.30;100.00;97630.41;5031384;28;20041;-52
2020/12/29 04:12:56;;;;;;;26.38;12.93;;;;;;;1.30;100.00;97640.91;5026045;28;20042;-54
2020/12/29 04:15:23;;;;;;;33.67;18.35;;;;;;;1.26;100.00;97639.66;5030600;28;20037;-53
2020/12/29 04:17:50;;;;;;;29.92;16.17;;;;;;;1.16;100.00;97652.25;5031600;28;20049;-55
2020/12/29 04:20:18;;;;;;;36.58;16.73;;;;;;;1.18;100.00;97655.53;5029536;28;20124;-55
2020/12/29 04:22:45;;;;;;;42.30;18.30;;;;;;;1.04;100.00;97657.13;5028037;28;20050;-54
2020/12/29 04:25:13;;;;;;;37.60;19.92;;;;;;;1.14;100.00;97656.88;5029899;28;20048;-52
2020/12/29 04:27:41;;;;;;;31.67;19.00;;;;;;;1.09;100.00;97667.94;5025431;28;20129;-53
2020/12/29 04:30:09;;;;;;;35.03;18.58;;;;;;;1.06;100.00;97670.09;5028616;28;20042;-52
2020/12/29 04:32:36;;;;;;;45.67;21.85;;;;;;;1.09;100.00;97665.31;5032027;28;20046;-53
2020/12/29 04:35:04;;;;;;;42.13;21.83;;;;;;;1.15;100.00;97666.41;5027334;28;20046;-52
2020/12/29 04:37:31;;;;;;;40.78;21.25;;;;;;;1.25;100.00;97659.06;5029786;28;20333;-52
2020/12/29 04:39:58;;;;;;;42.67;21.33;;;;;;;1.28;100.00;97677.09;5026773;28;20323;-53
2020/12/29 04:42:29;;;;;;;37.35;20.63;;;;;;;1.25;100.00;97674.84;5023182;28;20123;-53
2020/12/29 04:44:56;;;;;;;35.67;22.10;;;;;;;1.20;100.00;97683.28;5026884;28;20038;-54
2020/12/29 04:47:25;;;;;;;39.28;20.92;;;;;;;1.28;100.00;97684.19;5027165;28;20390;-52
2020/12/29 04:49:52;;;;;;;39.78;20.70;;;;;;;1.22;100.00;97684.88;5029847;28;20115;-54
2020/12/29 04:52:19;;;;;;;50.38;27.83;;;;;;;1.12;100.00;97691.22;5028605;28;20038;-53
2020/12/29 04:54:51;;;;;;;44.17;24.55;;;;;;;1.19;100.00;97707.09;5026171;28;20436;-53
2020/12/29 04:57:19;;;;;;;52.58;29.40;;;;;;;1.13;100.00;97710.44;5025988;28;20042;-52
2020/12/29 04:59:47;;;;;;;44.92;26.67;;;;;;;1.18;100.00;97708.91;5029917;28;20076;-52
2020/12/29 05:02:13;;;;;;;48.05;25.27;;;;;;;1.15;100.00;97711.09;5026430;28;20437;-51
2020/12/29 05:04:40;;;;;;;50.05;25.38;;;;;;;1.17;100.00;97715.16;5026716;28;20049;-52
2020/12/29 05:07:07;;;;;;;48.45;25.63;;;;;;;1.20;100.00;97713.97;5026954;28;20076;-53
2020/12/29 05:09:34;;;;;;;46.63;25.17;;;;;;;1.12;100.00;97721.94;5034761;28;20568;-53
2020/12/29 05:12:01;;;;;;;46.85;25.40;;;;;;;1.05;100.00;97724.47;5033780;28;20436;-54
2020/12/29 05:14:28;;;;;;;58.08;27.08;;;;;;;0.94;100.00;97725.72;5026665;28;20441;-52
2020/12/29 05:16:56;;;;;;;51.60;27.25;;;;;;;0.98;100.00;97732.25;5032456;28;20046;-52
2020/12/29 05:19:24;;;;;;;53.47;27.60;;;;;;;0.87;100.00;97732.66;5032116;28;20357;-53
2020/12/29 05:21:51;;;;;;;63.38;32.03;;;;;;;0.93;100.00;97739.03;5032261;28;20319;-54
2020/12/29 05:24:19;;;;;;;57.28;27.25;;;;;;;0.90;100.00;97742.81;5028778;28;20041;-53
2020/12/29 05:26:49;;;;;;;53.10;26.70;;;;;;;0.83;100.00;97755.84;5029994;28;20103;-53
2020/12/29 05:29:16;;;;;;;48.88;25.83;;;;;;;0.79;100.00;97754.56;5033263;28;20060;-50
2020/12/29 05:31:45;;;;;;;61.88;30.67;;;;;;;0.78;100.00;97765.22;5028197;28;20041;-53
2020/12/29 05:34:20;;;;;;;55.50;31.05;;;;;;;0.79;100.00;97764.25;5032341;28;20049;-52
2020/12/29 05:36:48;;;;;;;59.00;29.08;;;;;;;0.95;100.00;97758.06;5030594;28;20041;-51
2020/12/29 05:39:19;;;;;;;59.33;27.38;;;;;;;0.87;100.00;97777.34;5032508;28;20128;-53
2020/12/29 05:41:48;;;;;;;55.70;25.77;;;;;;;0.81;100.00;97773.59;5033213;28;20045;-54
2020/12/29 05:44:24;;;;;;;56.95;26.42;;;;;;;0.96;100.00;97778.91;5028736;28;20037;-52
2020/12/29 05:46:51;;;;;;;56.80;27.48;;;;;;;0.95;100.00;97781.69;5031494;28;20042;-54
2020/12/29 05:49:22;;;;;;;62.97;28.27;;;;;;;0.90;100.00;97782.22;5032420;28;20048;-52
2020/12/29 05:51:50;;;;;;;61.85;26.88;;;;;;;1.03;100.00;97786.91;5031402;28;20272;-51
2020/12/29 05:54:18;;;;;;;63.17;30.48;;;;;;;1.09;100.00;97778.31;5029394;28;20064;-53
2020/12/29 05:56:45;;;;;;;58.08;28.88;;;;;;;1.12;100.00;97787.66;5032079;28;20072;-49
2020/12/29 05:59:14;;;;;;;53.17;26.35;;;;;;;1.20;100.00;97788.41;5030445;28;20065;-48
2020/12/29 06:01:47;;;;;;;50.67;24.77;;;;;;;1.18;100.00;97794.84;5028378;28;20150;-50
2020/12/29 06:04:14;;;;;;;49.88;24.30;;;;;;;1.23;100.00;97799.56;5027176;28;20048;-47
2020/12/29 06:06:43;;;;;;;50.45;23.60;;;;;;;1.14;100.00;97810.13;5031728;28;20341;-52
2020/12/29 06:09:11;;;;;;;47.85;24.63;;;;;;;1.31;100.00;97825.78;5031763;28;20056;-52
2020/12/29 06:11:41;;;;;;;49.47;23.08;;;;;;;1.35;100.00;97822.63;5032207;28;20048;-53
2020/12/29 06:14:11;;;;;;;58.97;25.05;;;;;;;1.31;100.00;97831.88;5025514;28;20357;-53
2020/12/29 06:16:40;;;;;;;51.08;22.65;;;;;;;1.42;100.00;97832.44;5032865;28;20349;-53
2020/12/29 06:19:18;;;;;;;46.25;23.02;;;;;;;1.47;100.00;97836.16;5031154;28;20430;-52
2020/12/29 06:21:52;;;;;;;55.35;23.05;;;;;;;1.44;100.00;97838.34;5025802;28;20052;-52
2020/12/29 06:24:20;;;;;;;48.72;21.25;;;;;;;1.52;100.00;97833.81;5031111;28;20431;-51
2020/12/29 06:26:49;;;;;;;50.97;24.10;;;;;;;1.51;100.00;97836.63;5030264;28;20052;-51
2020/12/29 06:29:21;;;;;;;50.17;21.98;;;;;;;1.47;100.00;97851.13;5031458;28;20068;-52
2020/12/29 06:31:52;;;;;;;55.55;25.42;;;;;;;1.45;100.00;97853.13;5027356;28;20038;-54
2020/12/29 06:34:19;;;;;;;46.50;20.48;;;;;;;1.36;100.00;97850.56;5026314;28;20432;-50
2020/12/29 06:36:48;;;;;;;46.60;21.42;;;;;;;1.27;100.00;97863.94;5032705;28;20045;-49
2020/12/29 06:39:15;;;;;;;51.90;22.00;;;;;;;1.25;100.00;97869.38;5033000;28;20325;-52
2020/12/29 06:41:42;;;;;;;49.50;21.73;;;;;;;1.15;100.00;97874.06;5031301;28;20045;-51
2020/12/29 06:44:12;;;;;;;47.35;20.58;;;;;;;1.23;100.00;97873.19;5029788;28;20376;-52
2020/12/29 06:46:39;;;;;;;41.67;20.23;;;;;;;1.18;100.00;97876.34;5031701;28;20045;-48
2020/12/29 06:49:18;;;;;;;46.33;20.27;;;;;;;0.88;100.00;97886.72;5026873;28;20056;-51
2020/12/29 06:51:45;;;;;;;48.72;21.98;;;;;;;0.87;100.00;97892.13;5025666;28;20067;-52
2020/12/29 06:54:16;;;;;;;44.63;18.80;;;;;;;1.00;100.00;97887.94;5023231;28;20104;-53
2020/12/29 06:56:58;;;;;;;44.42;20.23;;;;;;;0.95;100.00;97895.53;5030866;28;20068;-52
2020/12/29 06:59:25;;;;;;;48.58;19.90;;;;;;;0.94;100.00;97893.88;5025285;28;20057;-51
2020/12/29 07:01:52;;;;;;;45.28;19.25;;;;;;;0.87;100.00;97897.41;5028027;28;20047;-50
2020/12/29 07:04:20;;;;;;;40.78;18.77;;;;;;;0.75;100.00;97915.31;5026587;28;20045;-52
2020/12/29 07:06:47;;;;;;;43.17;19.33;;;;;;;0.77;100.00;97908.91;5030381;28;20046;-51
2020/12/29 07:09:26;;;;;;;44.20;17.77;;;;;;;0.81;100.00;97914.66;5032346;28;20053;-51
2020/12/29 07:12:04;;;;;;;54.00;19.15;;;;;;;0.89;100.00;97911.16;5029171;28;20053;-50
2020/12/29 07:14:33;;;;;;;45.65;19.90;;;;;;;0.93;100.00;97918.53;5022985;28;20315;-53
2020/12/29 07:17:00;;;;;;;42.38;17.50;;;;;;;0.92;100.00;97921.31;5028956;28;20064;-52
2020/12/29 07:19:28;;;;;;;47.15;19.98;;;;;;;0.92;100.00;97931.84;5031879;28;20041;-48
2020/12/29 07:21:55;;;;;;;47.25;19.88;;;;;;;0.94;100.00;97941.19;5032306;28;20225;-52
2020/12/29 07:24:22;;;;;;;45.90;21.73;;;;;;;0.91;100.00;97940.69;5026769;28;20045;-52
2020/12/29 07:26:56;;;;;;;48.33;18.85;;;;;;;0.91;100.00;97946.78;5030420;28;20341;-49
2020/12/29 07:29:23;;;;;;;45.78;19.92;;;;;;;0.71;100.00;97942.94;5030061;28;20041;-53
2020/12/29 07:31:51;;;;;;;49.35;20.95;;;;;;;0.73;100.00;97948.84;5026016;28;20052;-50
2020/12/29 07:34:17;;;;;;;51.75;18.67;;;;;;;0.73;100.00;97960.16;5025715;28;20487;-53
2020/12/29 07:36:46;;;;;;;56.58;20.02;;;;;;;0.56;100.00;97964.66;5026470;28;20433;-51
2020/12/29 07:39:14;;;;;;;57.63;21.92;;;;;;;0.66;100.00;97978.41;5031684;28;20049;-49
2020/12/29 07:41:41;;;;;;;56.53;20.85;;;;;;;0.79;100.00;97984.94;5026121;28;20057;-51
2020/12/29 07:44:09;;;;;;;46.67;18.20;;;;;;;0.75;100.00;97981.84;5034539;28;20099;-52
2020/12/29 07:46:36;;;;;;;48.65;21.48;;;;;;;0.67;100.00;97995.00;5029969;28;20040;-52
2020/12/29 07:49:03;;;;;;;48.20;17.25;;;;;;;0.72;100.00;98005.00;5028308;28;20461;-50
2020/12/29 07:51:31;;;;;;;40.05;16.95;;;;;;;0.80;100.00;97999.72;5030694;28;20076;-50
2020/12/29 07:54:04;;;;;;;47.15;20.30;;;;;;;0.63;100.00;98002.38;5030206;28;20045;-52
2020/12/29 07:56:32;;;;;;;45.65;17.75;;;;;;;0.73;100.00;98004.00;5029501;28;20394;-52
2020/12/29 07:59:10;;;;;;;42.83;17.42;;;;;;;0.60;100.00;98001.91;5030994;28;20117;-53
2020/12/29 08:01:54;;;;;;;42.42;16.75;;;;;;;0.64;100.00;98009.28;5030905;28;20121;-52
2020/12/29 08:04:30;;;;;;;38.00;16.98;;;;;;;0.63;100.00;98012.09;5023463;28;20048;-53
2020/12/29 08:06:57;;;;;;;43.75;18.65;;;;;;;0.87;100.00;98020.88;5024008;28;20045;-51
2020/12/29 08:09:24;;;;;;;42.20;17.20;;;;;;;0.98;100.00;98013.44;5022831;28;20056;-50
2020/12/29 08:11:52;;;;;;;38.92;17.50;;;;;;;1.01;100.00;98023.63;5028626;28;20487;-52
2020/12/29 08:14:20;;;;;;;45.28;21.27;;;;;;;1.04;100.00;98025.09;5026164;28;20049;-51
2020/12/29 08:16:47;;;;;;;37.47;17.88;;;;;;;1.14;100.00;98024.88;5031177;28;20368;-53
2020/12/29 08:19:14;;;;;;;40.85;17.33;;;;;;;1.09;100.00;98033.28;5027820;28;20059;-48
2020/12/29 08:21:41;;;;;;;42.40;17.73;;;;;;;1.12;100.00;98034.75;5023312;28;20057;-48
2020/12/29 08:24:07;;;;;;;36.30;14.68;;;;;;;1.14;100.00;98046.72;5028748;28;20042;-49
2020/12/29 08:26:35;;;;;;;35.95;16.67;;;;;;;1.24;100.00;98050.97;5028394;28;20053;-49
2020/12/29 08:29:02;;;;;;;36.38;16.02;;;;;;;1.26;100.00;98064.75;5031615;28;20050;-48
2020/12/29 08:31:35;;;;;;;42.10;16.67;;;;;;;1.33;100.00;98063.91;5030172;28;20038;-51
2020/12/29 08:34:05;;;;;;;37.83;15.23;;;;;;;1.42;100.00;98075.22;5028401;28;20053;-49
2020/12/29 08:36:32;;;;;;;31.20;14.35;;;;;;;1.54;100.00;98079.09;5029252;28;20046;-50
2020/12/29 08:39:20;;;;;;;33.13;15.10;;;;;;;1.43;100.00;98081.28;5034285;28;20345;-52
2020/12/29 08:41:54;;;;;;;29.95;15.30;;;;;;;1.46;100.00;98086.19;5034763;28;20342;-52
2020/12/29 08:44:22;;;;;;;37.10;16.80;;;;;;;1.42;100.00;98079.63;5033975;28;20131;-51
2020/12/29 08:46:49;;;;;;;43.80;18.38;;;;;;;1.33;100.00;98087.59;5033210;28;20318;-52
2020/12/29 08:49:16;;;;;;;36.42;17.42;;;;;;;1.37;100.00;98098.56;5034465;28;20075;-53
2020/12/29 08:51:45;;;;;;;34.28;17.17;;;;;;;1.43;100.00;98103.13;5032325;28;20490;-51
2020/12/29 08:54:14;;;;;;;29.27;13.68;;;;;;;1.48;100.00;98113.16;5033675;28;20050;-53
2020/12/29 08:56:41;;;;;;;27.67;13.75;;;;;;;1.54;100.00;98121.16;5030137;28;20045;-53
2020/12/29 08:59:14;;;;;;;34.67;14.68;;;;;;;1.59;100.00;98118.03;5035616;28;20329;-53
2020/12/29 09:01:42;;;;;;;34.60;13.82;;;;;;;1.57;100.00;98125.28;5034580;28;20048;-51
2020/12/29 09:04:29;;;;;;;32.40;14.68;;;;;;;1.76;100.00;98134.56;5022094;28;20069;-53
2020/12/29 09:06:57;;;;;;;36.72;15.02;;;;;;;1.84;100.00;98131.06;5029910;28;20386;-50
2020/12/29 09:09:24;;;;;;;25.77;13.38;;;;;;;1.85;100.00;98132.72;5032694;28;20421;-47
2020/12/29 09:12:08;;;;;;;28.77;13.73;;;;;;;1.95;100.00;98149.09;5033157;28;20049;-50
2020/12/29 09:14:35;;;;;;;30.15;11.90;;;;;;;1.95;100.00;98141.22;5026811;28;20060;-45
2020/12/29 09:17:03;;;;;;;27.58;13.95;;;;;;;1.92;100.00;98148.66;5032322;28;20034;-48
2020/12/29 09:19:31;;;;;;;25.83;13.20;;;;;;;1.94;100.00;98163.25;5028782;28;20037;-48
2020/12/29 09:22:08;;;;;;;25.30;12.52;;;;;;;1.99;100.00;98160.94;5027221;28;20050;-51
2020/12/29 09:24:36;;;;;;;31.08;13.35;;;;;;;1.92;100.00;98157.34;5026496;28;20045;-50
2020/12/29 09:27:03;;;;;;;26.27;13.82;;;;;;;2.15;100.00;98161.84;5030811;28;20417;-51
2020/12/29 09:29:34;;;;;;;33.05;15.52;;;;;;;2.02;100.00;98170.31;5033105;28;20439;-47
2020/12/29 09:32:01;;;;;;;28.23;13.55;;;;;;;2.16;100.00;98174.81;5027330;28;20445;-47
2020/12/29 09:34:28;;;;;;;27.52;12.98;;;;;;;2.20;100.00;98176.13;5024454;28;20322;-49
2020/12/29 09:36:56;;;;;;;25.33;11.60;;;;;;;2.40;100.00;98179.13;5027129;28;20046;-50
2020/12/29 09:39:23;;;;;;;26.05;12.55;;;;;;;2.39;100.00;98185.38;5028103;28;20485;-48
2020/12/29 09:41:56;;;;;;;25.80;14.05;;;;;;;2.38;100.00;98181.13;5031702;28;20045;-48
2020/12/29 09:44:23;;;;;;;23.95;12.18;;;;;;;2.32;100.00;98184.44;5027794;28;20366;-48
2020/12/29 09:46:50;;;;;;;29.77;12.30;;;;;;;2.35;100.00;98191.16;5028015;28;20049;-46
2020/12/29 09:49:17;;;;;;;26.85;12.27;;;;;;;2.26;100.00;98198.31;5032770;28;20057;-48
2020/12/29 09:51:43;;;;;;;28.63;12.48;;;;;;;2.31;100.00;98197.78;5032699;28;20088;-45
2020/12/29 09:54:11;;;;;;;25.23;11.93;;;;;;;2.20;100.00;98212.19;5031674;28;20051;-49
2020/12/29 09:56:38;;;;;;;25.02;13.20;;;;;;;2.17;100.00;98215.97;5031285;28;20044;-50
2020/12/29 09:59:06;;;;;;;25.85;12.73;;;;;;;2.26;100.00;98210.66;5030945;28;20438;-51
2020/12/29 10:01:33;;;;;;;29.50;13.50;;;;;;;2.27;100.00;98223.66;5030190;28;20429;-47
2020/12/29 10:04:00;;;;;;;27.60;12.15;;;;;;;2.25;100.00;98220.38;5025238;28;20046;-53
2020/12/29 10:06:26;;;;;;;27.63;13.35;;;;;;;2.02;100.00;98226.41;5030261;28;20053;-53
2020/12/29 10:08:53;;;;;;;25.50;11.90;;;;;;;2.12;100.00;98231.47;5032902;28;20041;-52
2020/12/29 10:11:21;;;;;;;27.55;12.32;;;;;;;2.12;100.00;98235.91;5026207;28;20059;-52
2020/12/29 10:13:48;;;;;;;28.00;13.23;;;;;;;2.03;100.00;98235.94;5027575;28;20041;-53
2020/12/29 10:16:14;;;;;;;27.33;12.60;;;;;;;2.17;100.00;98237.03;5031771;28;20049;-55
2020/12/29 10:18:42;;;;;;;27.63;13.13;;;;;;;2.19;100.00;98239.50;5032634;28;20034;-52
2020/12/29 10:21:10;;;;;;;31.23;13.40;;;;;;;2.23;100.00;98236.34;5030689;28;20045;-49
2020/12/29 10:23:37;;;;;;;27.08;13.57;;;;;;;2.16;100.00;98245.13;5029009;28;20045;-53
2020/12/29 10:26:04;;;;;;;26.02;11.93;;;;;;;2.02;100.00;98242.19;5029987;28;20631;-53
2020/12/29 10:28:32;;;;;;;22.13;12.48;;;;;;;2.03;100.00;98251.75;5032747;28;20053;-54
2020/12/29 10:30:59;;;;;;;24.02;13.95;;;;;;;1.97;100.00;98255.06;5032263;28;20050;-53
2020/12/29 10:33:26;;;;;;;28.42;12.00;;;;;;;1.99;100.00;98271.50;5031701;28;20167;-53
2020/12/29 10:35:53;;;;;;;25.75;12.48;;;;;;;1.89;100.00;98265.63;5029560;28;20055;-53
2020/12/29 10:38:20;;;;;;;26.83;12.98;;;;;;;1.92;100.00;98269.72;5030477;28;20413;-54
2020/12/29 10:40:48;;;;;;;27.73;13.20;;;;;;;1.90;100.00;98262.00;5025144;28;20060;-57
2020/12/29 10:43:14;;;;;;;27.27;13.60;;;;;;;2.00;100.00;98277.56;5030506;28;20341;-50
2020/12/29 10:45:42;;;;;;;31.25;14.85;;;;;;;1.91;100.00;98276.78;5031856;28;20314;-52
2020/12/29 10:48:09;;;;;;;27.75;14.68;;;;;;;1.87;100.00;98278.13;5026040;28;20037;-51
2020/12/29 10:50:36;;;;;;;27.20;15.07;;;;;;;1.81;100.00;98276.97;5025262;28;20046;-52
2020/12/29 10:53:05;;;;;;;29.70;14.73;;;;;;;1.95;100.00;98279.91;5028378;28;20056;-53
2020/12/29 10:55:32;;;;;;;30.08;13.73;;;;;;;1.87;99.91;98278.13;5030260;28;20045;-54
2020/12/29 10:57:58;;;;;;;28.55;14.70;;;;;;;1.96;100.00;98282.38;5031922;28;20049;-53
2020/12/29 11:00:25;;;;;;;38.40;17.30;;;;;;;2.00;100.00;98288.09;5029850;28;20318;-51
2020/12/29 11:02:53;;;;;;;29.67;15.85;;;;;;;2.19;100.00;98287.72;5032592;28;20045;-53
2020/12/29 11:05:20;;;;;;;30.85;15.45;;;;;;;2.38;99.59;98294.38;5031405;28;20185;-52
2020/12/29 11:07:47;;;;;;;36.13;15.57;;;;;;;2.33;99.47;98294.06;5029702;28;20329;-53
2020/12/29 11:10:16;;;;;;;33.17;17.85;;;;;;;2.04;99.84;98308.69;5027605;28;20052;-53
2020/12/29 11:12:42;;;;;;;30.17;16.40;;;;;;;2.61;99.35;98312.06;5025957;28;20056;-54
2020/12/29 11:15:09;;;;;;;35.63;18.30;;;;;;;2.56;99.25;98317.00;5027784;28;20433;-51
2020/12/29 11:17:36;;;;;;;31.88;16.02;;;;;;;2.81;99.01;98316.88;5029104;28;20047;-53
2020/12/29 11:20:04;;;;;;;29.08;16.48;;;;;;;2.69;98.80;98314.63;5031228;28;20045;-53
2020/12/29 11:22:31;;;;;;;30.52;15.75;;;;;;;2.89;98.95;98322.09;5027416;28;20043;-55